Time;durP1;ratioP1;P1;durP2;ratioP2;P2;SDS_P1;SDS_P2;PMS_P1;PMS_P2;Temp;Humidity;BMP_temperature;BMP_pressure;BME280_temperature;BME280_humidity;BME280_pressure;Samples;Min_cycle;Max_cycle;Signal;HPM_P1;HPM_P2
2022/03/08 00:00:13;;;;;;;19.50;12.93;;;;;;;;;;5096735;28;20226;-67
2022/03/08 00:02:42;;;;;;;22.75;13.48;;;;;;;;;;5095799;28;20286;-67
2022/03/08 00:05:09;;;;;;;18.70;15.00;;;;;;;;;;5096029;28;20225;-67
2022/03/08 00:07:37;;;;;;;18.52;14.15;;;;;;;;;;5096022;28;20190;-69
2022/03/08 00:10:04;;;;;;;16.63;13.27;;;;;;;;;;5095668;28;20289;-68
2022/03/08 00:12:32;;;;;;;20.90;13.65;;;;;;;;;;5096366;28;20275;-67
2022/03/08 00:14:59;;;;;;;18.58;13.70;;;;;;;;;;5095993;28;20230;-67
2022/03/08 00:17:27;;;;;;;18.85;13.90;;;;;;;;;;5095797;28;20194;-68
2022/03/08 00:19:55;;;;;;;29.20;13.75;;;;;;;;;;5095558;28;20217;-67
2022/03/08 00:22:22;;;;;;;17.90;13.38;;;;;;;;;;5096094;28;20201;-67
2022/03/08 00:24:50;;;;;;;22.63;13.77;;;;;;;;;;5095511;28;20198;-67
2022/03/08 00:27:17;;;;;;;20.40;14.32;;;;;;;;;;5095732;28;20217;-67
2022/03/08 00:29:45;;;;;;;21.30;14.30;;;;;;;;;;5095882;28;20714;-68
2022/03/08 00:32:12;;;;;;;21.75;14.30;;;;;;;;;;5095197;28;20223;-68
2022/03/08 00:34:39;;;;;;;22.65;13.75;;;;;;;;;;5095573;28;20278;-67
2022/03/08 00:37:08;;;;;;;21.55;14.23;;;;;;;;;;5095465;28;20589;-68
2022/03/08 00:39:35;;;;;;;21.15;14.30;;;;;;;;;;5095241;28;20220;-68
2022/03/08 00:42:02;;;;;;;19.90;14.02;;;;;;;;;;5095365;28;20659;-68
2022/03/08 00:44:29;;;;;;;26.48;15.25;;;;;;;;;;5095369;28;20198;-68
2022/03/08 00:46:57;;;;;;;21.25;15.63;;;;;;;;;;5095420;28;20572;-68
2022/03/08 00:49:24;;;;;;;23.10;16.27;;;;;;;;;;5095179;28;20300;-68
2022/03/08 00:51:51;;;;;;;24.85;16.42;;;;;;;;;;5095120;28;20199;-68
2022/03/08 00:54:20;;;;;;;20.95;15.20;;;;;;;;;;5094894;28;20197;-68
2022/03/08 00:56:47;;;;;;;17.90;14.48;;;;;;;;;;5095064;28;20202;-68
2022/03/08 00:59:14;;;;;;;20.42;15.00;;;;;;;;;;5095061;28;20193;-68
2022/03/08 01:01:41;;;;;;;22.85;14.52;;;;;;;;;;5094670;28;20288;-67
2022/03/08 01:04:09;;;;;;;23.20;15.68;;;;;;;;;;5095490;28;20204;-67
2022/03/08 01:06:36;;;;;;;18.15;14.30;;;;;;;;;;5094858;28;20223;-68
2022/03/08 01:09:04;;;;;;;22.05;15.32;;;;;;;;;;5094604;28;20194;-67
2022/03/08 01:11:33;;;;;;;23.73;15.95;;;;;;;;;;5094997;28;20315;-68
2022/03/08 01:14:00;;;;;;;18.67;12.80;;;;;;;;;;5094482;28;20202;-67
2022/03/08 01:16:27;;;;;;;21.75;14.02;;;;;;;;;;5094919;28;20201;-67
2022/03/08 01:18:54;;;;;;;20.13;15.18;;;;;;;;;;5094397;28;20644;-68
2022/03/08 01:21:22;;;;;;;19.13;14.43;;;;;;;;;;5095101;28;20194;-67
2022/03/08 01:23:49;;;;;;;19.58;14.88;;;;;;;;;;5094696;28;20614;-68
2022/03/08 01:26:17;;;;;;;20.85;14.35;;;;;;;;;;5094633;28;20257;-68
2022/03/08 01:28:45;;;;;;;20.63;15.60;;;;;;;;;;5094464;28;20198;-67
2022/03/08 01:31:12;;;;;;;21.88;14.18;;;;;;;;;;5094593;28;20196;-67
2022/03/08 01:33:40;;;;;;;18.98;14.15;;;;;;;;;;5094330;28;20285;-67
2022/03/08 01:36:07;;;;;;;17.33;13.93;;;;;;;;;;5094125;28;20201;-68
2022/03/08 01:38:35;;;;;;;20.50;14.02;;;;;;;;;;5094860;28;20193;-68
2022/03/08 01:41:02;;;;;;;22.67;14.80;;;;;;;;;;5094172;28;20200;-67
2022/03/08 01:43:29;;;;;;;24.45;15.38;;;;;;;;;;5094513;28;20611;-68
2022/03/08 01:45:58;;;;;;;19.88;15.82;;;;;;;;;;5093853;28;20288;-67
2022/03/08 01:48:25;;;;;;;17.90;13.40;;;;;;;;;;5094156;28;20284;-67
2022/03/08 01:50:52;;;;;;;22.48;13.55;;;;;;;;;;5094250;28;20197;-67
2022/03/08 01:53:20;;;;;;;19.52;13.55;;;;;;;;;;5094176;28;20232;-68
2022/03/08 01:55:48;;;;;;;21.83;14.95;;;;;;;;;;5093850;28;20282;-67
2022/03/08 01:58:15;;;;;;;22.02;14.73;;;;;;;;;;5094006;28;20234;-67
2022/03/08 02:00:43;;;;;;;22.08;15.13;;;;;;;;;;5093509;28;20194;-67
2022/03/08 02:03:11;;;;;;;21.02;13.55;;;;;;;;;;5093906;28;20280;-67
2022/03/08 02:05:39;;;;;;;29.17;15.07;;;;;;;;;;5093920;28;20233;-67
2022/03/08 02:08:06;;;;;;;16.38;12.52;;;;;;;;;;5093761;28;20221;-67
2022/03/08 02:10:33;;;;;;;19.63;14.07;;;;;;;;;;5093382;28;20196;-67
2022/03/08 02:13:01;;;;;;;17.40;13.68;;;;;;;;;;5093575;28;20651;-67
2022/03/08 02:15:29;;;;;;;22.17;13.65;;;;;;;;;;5094407;28;20281;-68
2022/03/08 02:17:57;;;;;;;18.73;13.85;;;;;;;;;;5093790;28;20292;-67
2022/03/08 02:20:26;;;;;;;27.73;14.93;;;;;;;;;;5093500;28;20280;-67
2022/03/08 02:22:55;;;;;;;18.30;12.98;;;;;;;;;;5094316;28;20228;-68
2022/03/08 02:25:23;;;;;;;18.88;14.10;;;;;;;;;;5093738;28;20284;-67
2022/03/08 02:27:51;;;;;;;21.85;13.77;;;;;;;;;;5093948;28;20300;-67
2022/03/08 02:30:19;;;;;;;19.55;14.15;;;;;;;;;;5093963;28;20558;-67
2022/03/08 02:32:46;;;;;;;23.40;14.77;;;;;;;;;;5093920;28;20193;-66
2022/03/08 02:35:14;;;;;;;22.30;14.00;;;;;;;;;;5093370;28;20655;-67
2022/03/08 02:37:43;;;;;;;26.33;15.73;;;;;;;;;;5093344;28;20239;-67
2022/03/08 02:40:13;;;;;;;26.25;16.67;;;;;;;;;;5093650;28;20297;-68
2022/03/08 02:42:40;;;;;;;22.58;14.07;;;;;;;;;;5093846;28;20276;-67
2022/03/08 02:45:08;;;;;;;21.80;16.33;;;;;;;;;;5093521;28;20281;-68
2022/03/08 02:47:36;;;;;;;26.58;15.70;;;;;;;;;;5093415;28;20231;-67
2022/03/08 02:50:03;;;;;;;21.15;14.10;;;;;;;;;;5093239;28;20292;-68
2022/03/08 02:52:30;;;;;;;21.70;14.43;;;;;;;;;;5093190;28;20189;-67
2022/03/08 02:54:58;;;;;;;20.30;15.40;;;;;;;;;;5093155;28;20232;-67
2022/03/08 02:57:26;;;;;;;20.80;14.55;;;;;;;;;;5094115;28;20197;-67
2022/03/08 02:59:53;;;;;;;19.85;12.63;;;;;;;;;;5093210;28;20667;-68
2022/03/08 03:02:21;;;;;;;17.80;14.25;;;;;;;;;;5093933;28;20225;-66
2022/03/08 03:04:48;;;;;;;22.23;14.70;;;;;;;;;;5092995;28;20689;-67
2022/03/08 03:07:16;;;;;;;17.30;12.40;;;;;;;;;;5092994;28;20255;-68
2022/03/08 03:09:43;;;;;;;19.08;13.00;;;;;;;;;;5093074;28;20284;-67
2022/03/08 03:12:10;;;;;;;15.70;13.02;;;;;;;;;;5093550;28;20225;-67
2022/03/08 03:14:39;;;;;;;18.48;13.85;;;;;;;;;;5097433;28;20280;-67
2022/03/08 03:17:06;;;;;;;20.45;14.40;;;;;;;;;;5097068;28;20201;-67
2022/03/08 03:19:33;;;;;;;16.48;12.73;;;;;;;;;;5096667;28;20288;-67
2022/03/08 03:22:00;;;;;;;19.27;14.15;;;;;;;;;;5096775;28;20198;-67
2022/03/08 03:24:28;;;;;;;17.42;13.02;;;;;;;;;;5097158;28;20225;-67
2022/03/08 03:26:55;;;;;;;20.40;12.57;;;;;;;;;;5096537;28;20249;-67
2022/03/08 03:29:22;;;;;;;17.75;12.00;;;;;;;;;;5097113;28;20230;-66
2022/03/08 03:31:51;;;;;;;18.02;12.98;;;;;;;;;;5096814;28;20574;-66
2022/03/08 03:34:18;;;;;;;18.90;14.23;;;;;;;;;;5097140;28;20198;-67
2022/03/08 03:36:45;;;;;;;16.33;12.20;;;;;;;;;;5097576;28;20198;-66
2022/03/08 03:39:12;;;;;;;18.08;12.95;;;;;;;;;;5096507;28;20240;-67
2022/03/08 03:41:40;;;;;;;17.73;13.65;;;;;;;;;;5096301;28;20715;-67
2022/03/08 03:44:07;;;;;;;22.65;12.98;;;;;;;;;;5096846;28;20202;-68
2022/03/08 03:46:34;;;;;;;30.40;14.60;;;;;;;;;;5097007;28;20548;-67
2022/03/08 03:49:03;;;;;;;18.27;12.65;;;;;;;;;;5096139;28;20322;-66
2022/03/08 03:51:30;;;;;;;18.15;12.93;;;;;;;;;;5096519;28;20190;-67
2022/03/08 03:53:57;;;;;;;20.35;13.45;;;;;;;;;;5096404;28;20549;-67
2022/03/08 03:56:25;;;;;;;18.60;13.55;;;;;;;;;;5096872;28;20193;-67
2022/03/08 03:58:52;;;;;;;19.88;13.30;;;;;;;;;;5096292;28;20284;-66
2022/03/08 04:01:19;;;;;;;18.85;13.27;;;;;;;;;;5096499;28;20212;-67
2022/03/08 04:03:46;;;;;;;20.95;13.52;;;;;;;;;;5096195;28;20204;-67
2022/03/08 04:06:15;;;;;;;16.95;12.55;;;;;;;;;;5096111;28;20566;-67
2022/03/08 04:08:42;;;;;;;16.10;12.77;;;;;;;;;;5095801;28;20217;-67
2022/03/08 04:11:09;;;;;;;19.63;14.05;;;;;;;;;;5095712;28;20221;-67
2022/03/08 04:13:36;;;;;;;17.05;13.07;;;;;;;;;;5095706;28;20406;-68
2022/03/08 04:16:05;;;;;;;18.58;13.70;;;;;;;;;;5095989;28;20193;-68
2022/03/08 04:18:32;;;;;;;18.02;13.23;;;;;;;;;;5096078;28;20291;-68
2022/03/08 04:21:00;;;;;;;16.23;14.05;;;;;;;;;;5095494;28;20665;-68
2022/03/08 04:23:28;;;;;;;18.95;13.13;;;;;;;;;;5095309;28;20205;-67
2022/03/08 04:25:55;;;;;;;19.60;12.60;;;;;;;;;;5095626;28;20643;-68
2022/03/08 04:28:23;;;;;;;20.02;13.70;;;;;;;;;;5095675;28;20217;-67
2022/03/08 04:30:50;;;;;;;20.27;15.55;;;;;;;;;;5095571;28;20194;-67
2022/03/08 04:33:17;;;;;;;20.67;13.40;;;;;;;;;;5095667;28;20398;-67
2022/03/08 04:35:44;;;;;;;21.17;14.15;;;;;;;;;;5095180;28;20284;-67
2022/03/08 04:38:12;;;;;;;22.42;15.15;;;;;;;;;;5095240;28;20247;-68
2022/03/08 04:40:40;;;;;;;22.00;13.70;;;;;;;;;;5095250;28;20204;-68
2022/03/08 04:43:08;;;;;;;19.55;14.13;;;;;;;;;;5095137;28;20198;-68
2022/03/08 04:45:35;;;;;;;21.73;13.98;;;;;;;;;;5095302;28;20232;-68
2022/03/08 04:48:02;;;;;;;18.27;13.88;;;;;;;;;;5094893;28;20221;-67
2022/03/08 04:50:29;;;;;;;18.27;12.80;;;;;;;;;;5094922;28;20697;-67
2022/03/08 04:52:57;;;;;;;24.42;13.75;;;;;;;;;;5095202;28;20627;-67
2022/03/08 04:55:24;;;;;;;19.77;13.90;;;;;;;;;;5095117;28;20602;-68
2022/03/08 04:57:52;;;;;;;22.67;13.75;;;;;;;;;;5095099;28;20662;-68
2022/03/08 05:00:20;;;;;;;25.42;14.73;;;;;;;;;;5095035;28;20200;-77
2022/03/08 05:02:47;;;;;;;21.42;14.02;;;;;;;;;;5094859;28;20189;-68
2022/03/08 05:05:15;;;;;;;19.17;13.63;;;;;;;;;;5094940;28;20190;-68
2022/03/08 05:07:43;;;;;;;20.10;13.85;;;;;;;;;;5095297;28;20221;-69
2022/03/08 05:10:11;;;;;;;18.92;12.40;;;;;;;;;;5094775;28;20710;-68
2022/03/08 05:12:39;;;;;;;19.90;13.75;;;;;;;;;;5093818;28;20221;-67
2022/03/08 05:15:09;;;;;;;20.27;13.40;;;;;;;;;;5095436;28;20269;-68
2022/03/08 05:17:36;;;;;;;18.65;12.98;;;;;;;;;;5093882;28;20198;-68
2022/03/08 05:20:04;;;;;;;17.25;12.40;;;;;;;;;;5094971;28;20277;-68
2022/03/08 05:22:31;;;;;;;18.88;14.68;;;;;;;;;;5094732;28;20263;-68
2022/03/08 05:24:58;;;;;;;17.83;13.60;;;;;;;;;;5094735;28;20193;-69
2022/03/08 05:27:25;;;;;;;18.75;13.77;;;;;;;;;;5094501;28;20248;-68
2022/03/08 05:29:53;;;;;;;17.88;14.25;;;;;;;;;;5094577;28;20627;-68
2022/03/08 05:32:21;;;;;;;17.85;13.57;;;;;;;;;;5094164;28;20197;-68
2022/03/08 05:34:48;;;;;;;18.75;13.52;;;;;;;;;;5094042;28;20559;-69
2022/03/08 05:37:16;;;;;;;27.98;15.70;;;;;;;;;;5093988;28;20285;-69
2022/03/08 05:39:43;;;;;;;19.65;12.55;;;;;;;;;;5095126;28;20246;-68
2022/03/08 05:42:10;;;;;;;16.13;12.10;;;;;;;;;;5094266;28;20615;-69
2022/03/08 05:44:38;;;;;;;22.08;13.48;;;;;;;;;;5094069;28;20719;-68
2022/03/08 05:47:06;;;;;;;21.08;13.77;;;;;;;;;;5093779;28;20288;-70
2022/03/08 05:49:35;;;;;;;17.40;13.05;;;;;;;;;;5094237;28;20189;-67
2022/03/08 05:52:02;;;;;;;21.10;14.20;;;;;;;;;;5094110;28;20306;-69
2022/03/08 05:54:29;;;;;;;19.67;13.35;;;;;;;;;;5094091;28;20194;-69
2022/03/08 05:56:56;;;;;;;19.95;12.70;;;;;;;;;;5094060;28;20276;-69
2022/03/08 05:59:24;;;;;;;15.90;11.55;;;;;;;;;;5093768;28;20288;-69
2022/03/08 06:01:51;;;;;;;15.82;11.98;;;;;;;;;;5093989;28;20204;-69
2022/03/08 06:04:18;;;;;;;18.73;12.80;;;;;;;;;;5094013;28;20714;-69
2022/03/08 06:06:47;;;;;;;20.63;12.65;;;;;;;;;;5093886;28;20197;-68
2022/03/08 06:09:14;;;;;;;17.23;11.35;;;;;;;;;;5092819;28;20223;-69
2022/03/08 06:11:42;;;;;;;15.27;11.85;;;;;;;;;;5092342;28;20298;-68
2022/03/08 06:14:09;;;;;;;20.95;13.50;;;;;;;;;;5092928;28;20197;-70
2022/03/08 06:16:36;;;;;;;16.52;11.18;;;;;;;;;;5093958;28;20224;-69
2022/03/08 06:19:03;;;;;;;16.10;12.00;;;;;;;;;;5093615;28;20202;-69
2022/03/08 06:21:31;;;;;;;18.90;11.98;;;;;;;;;;5093238;28;20284;-68
2022/03/08 06:23:59;;;;;;;21.90;12.90;;;;;;;;;;5093666;28;20258;-67
2022/03/08 06:26:27;;;;;;;16.42;11.82;;;;;;;;;;5093608;28;20207;-67
2022/03/08 06:28:55;;;;;;;17.58;13.00;;;;;;;;;;5093336;28;20228;-68
2022/03/08 06:31:22;;;;;;;15.63;10.98;;;;;;;;;;5093623;28;20194;-68
2022/03/08 06:33:49;;;;;;;16.55;12.60;;;;;;;;;;5093722;28;20204;-68
2022/03/08 06:36:16;;;;;;;19.10;12.07;;;;;;;;;;5093368;28;20682;-67
2022/03/08 06:38:44;;;;;;;14.80;11.45;;;;;;;;;;5093348;28;20284;-67
2022/03/08 06:41:12;;;;;;;15.48;11.80;;;;;;;;;;5093136;28;20293;-67
2022/03/08 06:43:40;;;;;;;14.88;11.68;;;;;;;;;;5093573;28;20198;-68
2022/03/08 06:46:08;;;;;;;17.10;11.95;;;;;;;;;;5093939;28;20228;-67
2022/03/08 06:48:35;;;;;;;16.95;12.18;;;;;;;;;;5097326;28;20209;-68
2022/03/08 06:51:03;;;;;;;16.88;11.02;;;;;;;;;;5097282;28;20717;-67
2022/03/08 06:53:30;;;;;;;15.00;11.55;;;;;;;;;;5097155;28;20237;-68
2022/03/08 06:55:58;;;;;;;16.63;12.00;;;;;;;;;;5097190;28;20193;-67
2022/03/08 06:58:26;;;;;;;17.40;12.20;;;;;;;;;;5097399;28;20197;-68
2022/03/08 07:00:54;;;;;;;12.48;10.30;;;;;;;;;;5097354;28;20271;-68
2022/03/08 07:03:22;;;;;;;14.77;10.90;;;;;;;;;;5097262;28;20284;-68
2022/03/08 07:05:49;;;;;;;16.77;12.73;;;;;;;;;;5097794;28;20225;-68
2022/03/08 07:08:16;;;;;;;14.82;10.50;;;;;;;;;;5096814;28;20782;-68
2022/03/08 07:10:43;;;;;;;14.70;10.38;;;;;;;;;;5097088;28;20313;-68
2022/03/08 07:13:10;;;;;;;15.85;10.57;;;;;;;;;;5096850;28;20182;-68
2022/03/08 07:15:39;;;;;;;15.70;10.85;;;;;;;;;;5097175;28;20198;-67
2022/03/08 07:18:06;;;;;;;13.15;11.02;;;;;;;;;;5097177;28;20216;-68
2022/03/08 07:20:34;;;;;;;17.00;11.00;;;;;;;;;;5097296;28;20594;-67
2022/03/08 07:23:01;;;;;;;15.65;10.70;;;;;;;;;;5097136;28;20284;-67
2022/03/08 07:25:29;;;;;;;15.15;11.05;;;;;;;;;;5096628;28;20241;-68
2022/03/08 07:27:56;;;;;;;16.13;11.77;;;;;;;;;;5097072;28;20578;-67
2022/03/08 07:30:23;;;;;;;16.70;11.02;;;;;;;;;;5096762;28;20293;-68
2022/03/08 07:32:52;;;;;;;13.48;10.38;;;;;;;;;;5096749;28;20531;-67
2022/03/08 07:35:19;;;;;;;14.05;10.27;;;;;;;;;;5096721;28;20193;-68
2022/03/08 07:37:47;;;;;;;14.55;10.88;;;;;;;;;;5096820;28;20617;-67
2022/03/08 07:40:14;;;;;;;16.35;10.63;;;;;;;;;;5096923;28;20375;-68
2022/03/08 07:42:41;;;;;;;16.42;11.57;;;;;;;;;;5096115;28;20280;-67
2022/03/08 07:45:09;;;;;;;18.83;13.07;;;;;;;;;;5096426;28;20677;-68
2022/03/08 07:47:36;;;;;;;14.45;10.38;;;;;;;;;;5096298;28;20233;-67
2022/03/08 07:50:05;;;;;;;15.65;10.52;;;;;;;;;;5096075;28;20240;-68
2022/03/08 07:52:32;;;;;;;25.33;12.25;;;;;;;;;;5096241;28;20655;-67
2022/03/08 07:55:00;;;;;;;13.07;10.70;;;;;;;;;;5096317;28;20623;-68
2022/03/08 07:57:27;;;;;;;11.98;10.77;;;;;;;;;;5095924;28;20229;-67
2022/03/08 07:59:54;;;;;;;15.75;9.63;;;;;;;;;;5095056;28;20251;-68
2022/03/08 08:02:21;;;;;;;15.07;11.07;;;;;;;;;;5096109;28;20276;-68
2022/03/08 08:04:49;;;;;;;13.05;11.15;;;;;;;;;;5095818;28;20285;-68
2022/03/08 08:07:17;;;;;;;21.75;11.88;;;;;;;;;;5095963;28;20232;-67
2022/03/08 08:09:45;;;;;;;19.88;11.32;;;;;;;;;;5096437;28;20518;-68
2022/03/08 08:12:12;;;;;;;13.07;10.50;;;;;;;;;;5095645;28;20221;-68
2022/03/08 08:14:40;;;;;;;15.27;11.85;;;;;;;;;;5095991;28;20244;-67
2022/03/08 08:17:07;;;;;;;13.57;11.25;;;;;;;;;;5096235;28;20201;-67
2022/03/08 08:19:34;;;;;;;14.43;11.10;;;;;;;;;;5095452;28;20197;-69
2022/03/08 08:22:02;;;;;;;15.77;11.63;;;;;;;;;;5095505;28;20285;-69
2022/03/08 08:24:30;;;;;;;15.35;12.40;;;;;;;;;;5095659;28;20531;-68
2022/03/08 08:26:58;;;;;;;15.43;12.68;;;;;;;;;;5095377;28;20746;-68
2022/03/08 08:29:25;;;;;;;15.80;12.38;;;;;;;;;;5095245;28;20249;-68
2022/03/08 08:31:52;;;;;;;16.65;13.63;;;;;;;;;;5095191;28;20202;-67
2022/03/08 08:34:19;;;;;;;17.70;14.80;;;;;;;;;;5095050;28;20656;-67
2022/03/08 08:36:47;;;;;;;16.90;13.40;;;;;;;;;;5095588;28;20201;-67
2022/03/08 08:39:15;;;;;;;16.67;14.50;;;;;;;;;;5095256;28;20197;-68
2022/03/08 08:41:44;;;;;;;21.60;14.45;;;;;;;;;;5095098;28;20193;-68
2022/03/08 08:44:11;;;;;;;19.50;13.63;;;;;;;;;;5095280;28;20200;-67
2022/03/08 08:46:38;;;;;;;23.67;16.33;;;;;;;;;;5095288;28;20651;-68
2022/03/08 08:49:06;;;;;;;17.95;14.52;;;;;;;;;;5095169;28;20217;-67
2022/03/08 08:51:34;;;;;;;23.50;15.52;;;;;;;;;;5095265;28;20285;-67
2022/03/08 08:54:01;;;;;;;19.73;16.35;;;;;;;;;;5095364;28;20197;-68
2022/03/08 08:56:29;;;;;;;21.30;15.45;;;;;;;;;;5094872;28;20670;-68
2022/03/08 08:58:57;;;;;;;20.58;15.73;;;;;;;;;;5094681;28;20289;-68
2022/03/08 09:01:24;;;;;;;24.83;18.58;;;;;;;;;;5095003;28;20203;-68
2022/03/08 09:03:52;;;;;;;25.02;15.32;;;;;;;;;;5094664;28;20685;-68
2022/03/08 09:06:19;;;;;;;16.30;13.55;;;;;;;;;;5094799;28;20231;-68
2022/03/08 09:08:46;;;;;;;18.35;12.40;;;;;;;;;;5094340;28;20259;-68
2022/03/08 09:11:14;;;;;;;15.15;11.90;;;;;;;;;;5094992;28;20227;-68
2022/03/08 09:13:42;;;;;;;16.30;12.65;;;;;;;;;;5094901;28;20340;-68
2022/03/08 09:16:14;;;;;;;16.30;10.50;;;;;;;;;;5094401;28;20255;-68
2022/03/08 09:18:41;;;;;;;14.60;9.80;;;;;;;;;;5095241;28;20694;-68
2022/03/08 09:21:10;;;;;;;12.00;8.82;;;;;;;;;;5094682;28;20196;-68
2022/03/08 09:23:37;;;;;;;12.48;9.70;;;;;;;;;;5094518;28;20221;-69
2022/03/08 09:26:05;;;;;;;11.57;9.23;;;;;;;;;;5094629;28;20192;-68
2022/03/08 09:28:32;;;;;;;10.20;8.55;;;;;;;;;;5094344;28;20623;-68
2022/03/08 09:31:00;;;;;;;9.23;7.70;;;;;;;;;;5094545;28;20221;-68
2022/03/08 09:33:28;;;;;;;9.38;8.40;;;;;;;;;;5094567;28;20205;-67
2022/03/08 09:35:56;;;;;;;7.78;6.97;;;;;;;;;;5094088;28;20296;-67
2022/03/08 09:38:23;;;;;;;10.18;7.93;;;;;;;;;;5094005;28;20649;-67
2022/03/08 09:40:52;;;;;;;11.30;7.47;;;;;;;;;;5094757;28;20208;-68
2022/03/08 09:43:19;;;;;;;7.10;6.43;;;;;;;;;;5094335;28;20597;-67
2022/03/08 09:45:47;;;;;;;14.07;8.13;;;;;;;;;;5093898;28;20237;-67
2022/03/08 09:48:15;;;;;;;10.68;7.18;;;;;;;;;;5094135;28;20216;-68
2022/03/08 09:50:44;;;;;;;9.32;6.93;;;;;;;;;;5094082;28;20214;-68
2022/03/08 09:53:12;;;;;;;7.95;7.25;;;;;;;;;;5093719;28;20191;-68
2022/03/08 09:55:39;;;;;;;8.35;7.13;;;;;;;;;;5093967;28;20192;-68
2022/03/08 09:58:07;;;;;;;12.13;7.55;;;;;;;;;;5094010;28;20240;-67
2022/03/08 10:00:34;;;;;;;8.95;7.30;;;;;;;;;;5093921;28;20227;-68
2022/03/08 10:03:02;;;;;;;17.10;8.30;;;;;;;;;;5093568;28;20192;-68
2022/03/08 10:05:37;;;;;;;8.18;7.38;;;;;;;;;;5093881;28;20226;-68
2022/03/08 10:08:13;;;;;;;7.60;6.68;;;;;;;;;;5093583;28;20271;-68
2022/03/08 10:10:48;;;;;;;8.10;7.30;;;;;;;;;;5093688;28;20280;-68
2022/03/08 10:13:16;;;;;;;9.63;7.43;;;;;;;;;;5093473;28;20195;-68
2022/03/08 10:15:43;;;;;;;7.68;6.57;;;;;;;;;;5093292;28;20290;-68
2022/03/08 10:18:10;;;;;;;8.85;7.10;;;;;;;;;;5093688;28;20200;-68
2022/03/08 10:20:38;;;;;;;7.90;7.10;;;;;;;;;;5093679;28;20197;-68
2022/03/08 10:23:13;;;;;;;7.03;6.22;;;;;;;;;;5093683;28;20203;-68
2022/03/08 10:25:41;;;;;;;12.13;6.93;;;;;;;;;;5093402;28;20645;-67
2022/03/08 10:28:09;;;;;;;6.82;6.00;;;;;;;;;;5093348;28;20649;-68
2022/03/08 10:30:49;;;;;;;8.57;6.13;;;;;;;;;;5093495;28;20306;-68
2022/03/08 10:33:19;;;;;;;12.27;6.72;;;;;;;;;;5093557;28;20286;-68
2022/03/08 10:35:47;;;;;;;9.10;6.63;;;;;;;;;;5093496;28;20196;-68
2022/03/08 10:38:15;;;;;;;6.82;6.28;;;;;;;;;;5093277;28;20202;-68
2022/03/08 10:40:43;;;;;;;7.38;6.68;;;;;;;;;;5093446;28;20216;-68
2022/03/08 10:43:11;;;;;;;9.23;6.90;;;;;;;;;;5093190;28;20289;-69
2022/03/08 10:45:44;;;;;;;11.07;6.20;;;;;;;;;;5093382;28;20196;-69
2022/03/08 10:48:13;;;;;;;7.20;6.15;;;;;;;;;;5093169;28;20221;-68
2022/03/08 10:50:41;;;;;;;8.02;6.38;;;;;;;;;;5093375;28;20312;-68
2022/03/08 10:53:09;;;;;;;6.93;6.32;;;;;;;;;;5093714;28;20201;-69
2022/03/08 10:55:38;;;;;;;8.63;6.72;;;;;;;;;;5092990;28;20741;-67
2022/03/08 10:58:06;;;;;;;8.43;6.05;;;;;;;;;;5093627;28;20253;-68
2022/03/08 11:00:34;;;;;;;8.10;6.65;;;;;;;;;;5093407;28;20211;-68
2022/03/08 11:03:02;;;;;;;9.32;7.10;;;;;;;;;;5092988;28;20208;-68
2022/03/08 11:05:30;;;;;;;7.35;6.10;;;;;;;;;;5093005;28;20677;-68
2022/03/08 11:07:58;;;;;;;7.00;6.30;;;;;;;;;;5093013;28;20287;-67
2022/03/08 11:10:25;;;;;;;8.00;6.25;;;;;;;;;;5093047;28;20224;-68
2022/03/08 11:12:55;;;;;;;6.15;5.55;;;;;;;;;;5093056;28;20275;-68
2022/03/08 11:15:23;;;;;;;7.88;5.10;;;;;;;;;;5093081;28;20286;-68
2022/03/08 11:17:52;;;;;;;7.25;5.78;;;;;;;;;;5093176;28;20262;-68
2022/03/08 11:20:20;;;;;;;7.65;6.55;;;;;;;;;;5093078;28;20622;-68
2022/03/08 11:22:48;;;;;;;7.93;6.60;;;;;;;;;;5093102;28;20230;-68
2022/03/08 11:25:16;;;;;;;9.80;7.03;;;;;;;;;;5092873;28;20195;-69
2022/03/08 11:27:45;;;;;;;8.35;6.60;;;;;;;;;;5093211;28;20673;-68
2022/03/08 11:30:15;;;;;;;6.55;5.90;;;;;;;;;;5092844;28;20221;-68
2022/03/08 11:32:44;;;;;;;8.55;6.70;;;;;;;;;;5092992;28;20218;-68
2022/03/08 11:35:13;;;;;;;13.75;6.13;;;;;;;;;;5096602;28;20292;-69
2022/03/08 11:37:42;;;;;;;6.70;6.10;;;;;;;;;;5096657;28;20198;-68
2022/03/08 11:40:10;;;;;;;7.78;6.15;;;;;;;;;;5096633;28;20196;-69
2022/03/08 11:42:41;;;;;;;6.60;5.28;;;;;;;;;;5096733;28;20194;-69
2022/03/08 11:45:11;;;;;;;6.70;6.10;;;;;;;;;;5096606;28;20268;-69
2022/03/08 11:47:41;;;;;;;7.35;6.60;;;;;;;;;;5096020;28;20212;-68
2022/03/08 11:50:18;;;;;;;7.07;5.55;;;;;;;;;;5096191;28;20219;-67
2022/03/08 11:52:45;;;;;;;5.82;5.22;;;;;;;;;;5096580;28;20233;-70
2022/03/08 11:55:13;;;;;;;6.82;6.10;;;;;;;;;;5096250;28;20605;-67
2022/03/08 11:57:57;;;;;;;8.88;6.25;;;;;;;;;;5095887;28;20290;-68
2022/03/08 12:00:26;;;;;;;7.57;6.15;;;;;;;;;;5096209;28;20253;-69
2022/03/08 12:02:55;;;;;;;7.22;5.68;;;;;;;;;;5096232;28;20219;-68
2022/03/08 12:05:41;;;;;;;7.30;5.85;;;;;;;;;;5096888;28;20193;-67
2022/03/08 12:08:29;;;;;;;9.13;5.63;;;;;;;;;;5096257;28;20283;-67
2022/03/08 12:11:00;;;;;;;5.93;5.35;;;;;;;;;;5069909;28;20318;-68
2022/03/08 12:13:28;;;;;;;6.70;5.38;;;;;;;;;;5096654;28;20185;-69
2022/03/08 12:16:14;;;;;;;7.22;6.07;;;;;;;;;;5095866;28;20289;-69
2022/03/08 12:18:44;;;;;;;6.78;5.82;;;;;;;;;;5095824;28;20255;-68
2022/03/08 12:21:35;;;;;;;8.90;6.30;;;;;;;;;;5095396;28;20262;-68
2022/03/08 12:24:03;;;;;;;8.65;7.15;;;;;;;;;;5080477;28;20235;-69
2022/03/08 12:26:31;;;;;;;5.28;4.78;;;;;;;;;;5095859;28;20271;-68
2022/03/08 12:29:08;;;;;;;10.60;5.97;;;;;;;;;;5095586;28;20211;-71
2022/03/08 12:31:56;;;;;;;7.07;5.25;;;;;;;;;;5095635;28;20652;-68
2022/03/08 12:34:38;;;;;;;6.82;5.50;;;;;;;;;;5095594;28;20246;-69
2022/03/08 12:37:05;;;;;;;5.82;5.25;;;;;;;;;;5095255;28;20184;-68
2022/03/08 12:39:49;;;;;;;5.80;5.25;;;;;;;;;;5095351;28;20241;-68
2022/03/08 12:42:28;;;;;;;5.85;5.25;;;;;;;;;;5095435;28;20181;-67
2022/03/08 12:44:58;;;;;;;6.82;5.20;;;;;;;;;;5094701;28;20184;-67
2022/03/08 12:47:26;;;;;;;5.55;4.65;;;;;;;;;;5095215;28;20231;-68
2022/03/08 12:49:54;;;;;;;5.25;4.75;;;;;;;;;;5094887;28;20705;-67
2022/03/08 12:52:22;;;;;;;4.93;4.45;;;;;;;;;;5094660;28;20243;-67
2022/03/08 12:54:50;;;;;;;6.38;5.00;;;;;;;;;;5095029;28;20212;-68
2022/03/08 12:57:17;;;;;;;4.20;3.80;;;;;;;;;;5095296;28;20229;-70
2022/03/08 12:59:49;;;;;;;4.97;3.92;;;;;;;;;;5094799;28;20671;-67
2022/03/08 13:02:17;;;;;;;4.55;4.15;;;;;;;;;;5094621;28;20196;-68
2022/03/08 13:04:44;;;;;;;4.32;3.92;;;;;;;;;;5094966;28;20195;-69
2022/03/08 13:07:13;;;;;;;4.40;4.00;;;;;;;;;;5094452;28;20203;-69
2022/03/08 13:09:51;;;;;;;6.13;3.90;;;;;;;;;;5093621;28;20245;-68
2022/03/08 13:12:18;;;;;;;4.68;4.28;;;;;;;;;;5094760;28;20315;-68
2022/03/08 13:15:01;;;;;;;5.18;4.68;;;;;;;;;;5094671;28;20192;-67
2022/03/08 13:17:31;;;;;;;5.85;4.45;;;;;;;;;;5094200;28;20265;-68
2022/03/08 13:19:59;;;;;;;5.07;4.50;;;;;;;;;;5094279;28;20287;-68
2022/03/08 13:22:27;;;;;;;5.47;4.40;;;;;;;;;;5094419;28;20287;-68
2022/03/08 13:25:07;;;;;;;4.95;4.45;;;;;;;;;;5094368;28;20652;-68
2022/03/08 13:27:49;;;;;;;5.90;5.38;;;;;;;;;;5094674;28;20534;-68
2022/03/08 13:30:17;;;;;;;6.32;5.82;;;;;;;;;;5094847;28;20251;-68
2022/03/08 13:32:44;;;;;;;6.93;5.40;;;;;;;;;;5094012;28;20232;-67
2022/03/08 13:35:11;;;;;;;9.48;5.65;;;;;;;;;;5093950;28;20200;-69
2022/03/08 13:37:59;;;;;;;5.65;4.63;;;;;;;;;;5094317;28;20247;-68
2022/03/08 13:40:29;;;;;;;7.25;4.93;;;;;;;;;;5089395;28;20227;-68
2022/03/08 13:42:57;;;;;;;6.22;5.00;;;;;;;;;;5094536;28;20614;-69
2022/03/08 13:45:25;;;;;;;6.10;5.50;;;;;;;;;;5094037;28;20199;-68
2022/03/08 13:47:54;;;;;;;6.60;4.72;;;;;;;;;;5094060;28;20548;-68
2022/03/08 13:50:22;;;;;;;5.15;4.65;;;;;;;;;;5094347;28;20312;-68
2022/03/08 13:52:50;;;;;;;12.07;8.13;;;;;;;;;;5093626;28;20197;-68
2022/03/08 13:55:17;;;;;;;5.32;4.80;;;;;;;;;;5093788;28;20194;-69
2022/03/08 13:57:56;;;;;;;4.93;4.25;;;;;;;;;;5093186;28;20289;-69
2022/03/08 14:00:27;;;;;;;6.75;4.43;;;;;;;;;;5093907;28;20265;-68
2022/03/08 14:02:55;;;;;;;6.22;4.10;;;;;;;;;;5093415;28;20229;-68
2022/03/08 14:05:23;;;;;;;5.17;4.30;;;;;;;;;;5093457;28;20228;-68
2022/03/08 14:07:57;;;;;;;4.43;4.03;;;;;;;;;;5094071;28;20861;-67
2022/03/08 14:10:24;;;;;;;8.10;3.75;;;;;;;;;;5093267;28;21059;-68
2022/03/08 14:12:52;;;;;;;5.13;4.10;;;;;;;;;;5093408;28;20190;-68
2022/03/08 14:15:21;;;;;;;4.45;4.05;;;;;;;;;;5093393;28;20427;-68
2022/03/08 14:17:49;;;;;;;7.00;4.50;;;;;;;;;;5093307;28;20193;-67
2022/03/08 14:20:17;;;;;;;5.00;4.50;;;;;;;;;;5093700;28;20806;-70
2022/03/08 14:23:00;;;;;;;4.90;4.40;;;;;;;;;;5093524;28;20443;-68
2022/03/08 14:25:27;;;;;;;6.10;3.53;;;;;;;;;;5093667;28;20207;-69
2022/03/08 14:27:54;;;;;;;4.53;4.10;;;;;;;;;;5093563;28;20221;-68
2022/03/08 14:30:24;;;;;;;5.07;4.68;;;;;;;;;;5093189;28;20485;-69
2022/03/08 14:32:52;;;;;;;4.43;4.07;;;;;;;;;;5093459;28;20193;-69